Time;durP1;ratioP1;P1;durP2;ratioP2;P2;SDS_P1;SDS_P2;PMS_P1;PMS_P2;Temp;Humidity;BMP_temperature;BMP_pressure;BME280_temperature;BME280_humidity;BME280_pressure;Samples;Min_cycle;Max_cycle;Signal;HPM_P1;HPM_P2
2023/08/13 00:01:01;;;;;;;7.97;7.15;;;20.90;72.80;;;;;;4993721;28;20080;-56
2023/08/13 00:03:27;;;;;;;9.93;7.18;;;20.90;72.80;;;;;;4993783;28;20065;-56
2023/08/13 00:05:53;;;;;;;8.23;7.28;;;20.90;72.80;;;;;;4993820;28;20053;-56
2023/08/13 00:08:18;;;;;;;9.02;7.07;;;20.90;72.90;;;;;;4993616;28;20015;-57
2023/08/13 00:10:44;;;;;;;9.05;6.30;;;20.90;72.90;;;;;;4993461;28;20031;-54
2023/08/13 00:13:10;;;;;;;8.63;7.07;;;20.90;72.90;;;;;;4993445;28;20120;-54
2023/08/13 00:15:36;;;;;;;7.70;6.90;;;20.90;73.10;;;;;;4993661;28;20034;-57
2023/08/13 00:18:02;;;;;;;7.75;6.88;;;20.90;73.10;;;;;;4993618;28;20022;-56
2023/08/13 00:20:27;;;;;;;7.57;6.68;;;20.90;73.10;;;;;;4993159;28;20030;-57
2023/08/13 00:22:53;;;;;;;8.02;7.22;;;20.80;73.10;;;;;;4993325;28;20051;-57
2023/08/13 00:25:19;;;;;;;8.98;6.57;;;20.80;73.10;;;;;;4993160;28;20077;-57
2023/08/13 00:27:44;;;;;;;9.65;7.35;;;20.80;73.10;;;;;;4993193;28;20080;-55
2023/08/13 00:30:10;;;;;;;9.63;6.78;;;20.80;73.10;;;;;;4993093;28;20034;-57
2023/08/13 00:32:35;;;;;;;8.68;6.55;;;20.80;73.30;;;;;;4993151;28;20041;-56
2023/08/13 00:35:01;;;;;;;7.82;6.32;;;20.80;73.10;;;;;;4993026;28;20035;-57
2023/08/13 00:37:27;;;;;;;11.52;6.95;;;20.80;73.20;;;;;;4993292;28;20476;-56
2023/08/13 00:39:52;;;;;;;9.50;6.53;;;20.70;72.90;;;;;;4992908;28;20033;-57
2023/08/13 00:42:18;;;;;;;7.07;6.40;;;20.70;72.70;;;;;;4992936;28;20053;-55
2023/08/13 00:44:44;;;;;;;7.50;5.80;;;20.70;72.60;;;;;;4993107;28;20470;-56
2023/08/13 00:47:09;;;;;;;6.45;5.50;;;20.70;72.50;;;;;;4992802;28;20036;-56
2023/08/13 00:49:35;;;;;;;6.50;5.57;;;20.70;72.20;;;;;;4992811;28;20018;-57
2023/08/13 00:52:01;;;;;;;7.63;6.20;;;20.70;72.10;;;;;;4992707;28;20030;-53
2023/08/13 00:54:28;;;;;;;7.10;5.60;;;20.70;72.10;;;;;;4992663;28;20446;-55
2023/08/13 00:56:53;;;;;;;7.03;5.60;;;20.70;72.10;;;;;;4992851;28;20026;-56
2023/08/13 00:59:20;;;;;;;7.30;5.57;;;20.70;71.90;;;;;;4992394;28;20030;-56
2023/08/13 01:01:46;;;;;;;6.18;5.25;;;20.70;71.80;;;;;;4992657;28;20028;-58
2023/08/13 01:04:12;;;;;;;6.47;5.57;;;20.70;71.70;;;;;;4992967;28;20114;-56
2023/08/13 01:06:59;;;;;;;6.18;5.25;;;20.70;71.70;;;;;;4992748;28;20026;-55
2023/08/13 01:09:45;;;;;;;7.30;5.78;;;20.70;71.60;;;;;;4992810;28;20054;-57
2023/08/13 01:12:31;;;;;;;7.10;5.47;;;20.70;71.30;;;;;;4992695;28;20022;-57
2023/08/13 01:15:19;;;;;;;8.23;5.95;;;20.70;71.40;;;;;;4992332;28;20026;-57
2023/08/13 01:17:49;;;;;;;6.40;5.47;;;20.70;71.40;;;;;;4992308;28;20019;-57
2023/08/13 01:20:15;;;;;;;8.85;5.88;;;20.60;71.30;;;;;;4992376;28;20529;-57
2023/08/13 01:22:50;;;;;;;7.05;5.18;;;20.60;71.20;;;;;;4992529;28;20058;-53
2023/08/13 01:25:17;;;;;;;6.63;5.50;;;20.70;71.20;;;;;;4992392;28;20391;-57
2023/08/13 01:27:56;;;;;;;7.72;5.72;;;20.60;71.30;;;;;;4992472;28;20030;-56
2023/08/13 01:31:00;;;;;;;6.63;5.38;;;20.60;72.10;;;;;;4992111;28;20030;-54
2023/08/13 01:33:30;;;;;;;8.02;5.97;;;20.60;71.30;;;;;;4992112;28;20525;-55
2023/08/13 01:35:58;;;;;;;8.32;5.75;;;20.60;71.60;;;;;;4992117;28;20041;-53
2023/08/13 01:38:25;;;;;;;7.25;5.40;;;20.60;71.60;;;;;;4991906;28;20441;-55
2023/08/13 01:40:51;;;;;;;7.55;5.65;;;20.60;71.70;;;;;;4992494;28;20062;-57
2023/08/13 01:43:17;;;;;;;8.65;6.43;;;20.50;71.70;;;;;;4991871;28;20108;-56
2023/08/13 01:45:43;;;;;;;7.72;6.20;;;20.50;71.90;;;;;;4991941;28;20037;-54
2023/08/13 01:48:09;;;;;;;7.07;5.78;;;20.50;72.10;;;;;;4990698;28;20018;-57
2023/08/13 01:50:37;;;;;;;7.63;6.20;;;20.50;72.20;;;;;;4991882;28;20022;-57
2023/08/13 01:53:03;;;;;;;7.85;6.03;;;20.50;72.20;;;;;;4991857;28;20022;-55
2023/08/13 01:55:28;;;;;;;7.95;6.25;;;20.40;72.20;;;;;;4992213;28;20114;-57
2023/08/13 01:57:54;;;;;;;6.65;5.47;;;20.40;72.50;;;;;;4991775;28;20045;-56
2023/08/13 02:00:20;;;;;;;6.95;5.55;;;20.40;72.50;;;;;;4991831;28;20049;-57
2023/08/13 02:02:46;;;;;;;6.75;5.70;;;20.40;72.30;;;;;;4992004;28;20026;-56
2023/08/13 02:05:11;;;;;;;8.40;5.85;;;20.40;72.00;;;;;;4991788;28;20026;-57
2023/08/13 02:07:37;;;;;;;6.55;5.53;;;20.40;72.00;;;;;;4991623;28;20034;-56
2023/08/13 02:10:03;;;;;;;8.38;5.72;;;20.40;72.20;;;;;;4992971;28;20061;-53
2023/08/13 02:12:29;;;;;;;6.43;4.72;;;20.40;72.20;;;;;;4995611;28;20451;-57
2023/08/13 02:14:54;;;;;;;6.18;5.35;;;20.40;72.20;;;;;;4995612;28;20057;-56
2023/08/13 02:17:20;;;;;;;7.85;5.38;;;20.30;72.00;;;;;;4995650;28;20433;-57
2023/08/13 02:19:46;;;;;;;6.25;5.55;;;20.30;71.70;;;;;;4995530;28;20524;-54
2023/08/13 02:22:12;;;;;;;7.63;5.10;;;20.30;71.70;;;;;;4995595;28;20054;-57
2023/08/13 02:24:37;;;;;;;6.07;5.03;;;20.30;71.60;;;;;;4995363;28;20095;-55
2023/08/13 02:27:03;;;;;;;8.50;5.72;;;20.30;71.50;;;;;;4994308;28;20034;-57
2023/08/13 02:29:29;;;;;;;7.32;5.20;;;20.30;71.50;;;;;;4995391;28;20500;-56
2023/08/13 02:31:55;;;;;;;7.20;5.50;;;20.30;71.60;;;;;;4995398;28;20022;-56
2023/08/13 02:34:22;;;;;;;7.68;5.60;;;20.30;71.50;;;;;;4995573;28;20472;-56
2023/08/13 02:36:48;;;;;;;5.57;4.57;;;20.30;71.50;;;;;;4995268;28;20032;-57
2023/08/13 02:39:13;;;;;;;6.47;4.85;;;20.30;71.40;;;;;;4995307;28;20489;-57
2023/08/13 02:41:39;;;;;;;6.40;4.80;;;20.20;71.20;;;;;;4995147;28;20477;-55
2023/08/13 02:44:04;;;;;;;6.28;4.72;;;20.30;71.20;;;;;;4995615;28;20065;-55
2023/08/13 02:46:30;;;;;;;5.43;4.72;;;20.30;71.10;;;;;;4995004;28;20389;-55
2023/08/13 02:48:56;;;;;;;6.20;5.18;;;20.30;71.10;;;;;;4995057;28;20036;-57
2023/08/13 02:51:22;;;;;;;6.55;5.05;;;20.30;71.30;;;;;;4995025;28;20026;-56
2023/08/13 02:53:48;;;;;;;6.47;5.15;;;20.30;71.20;;;;;;4994971;28;20031;-57
2023/08/13 02:56:14;;;;;;;7.00;5.00;;;20.30;71.20;;;;;;4995130;28;20663;-57
2023/08/13 02:58:39;;;;;;;6.43;4.70;;;20.30;71.10;;;;;;4994919;28;20030;-57
2023/08/13 03:01:05;;;;;;;5.70;4.65;;;20.30;70.90;;;;;;4995029;28;20061;-56
2023/08/13 03:03:31;;;;;;;5.10;4.60;;;20.30;70.80;;;;;;4995055;28;20030;-54
2023/08/13 03:05:57;;;;;;;5.10;4.53;;;20.30;70.80;;;;;;4994696;28;20022;-57
2023/08/13 03:08:23;;;;;;;5.50;4.30;;;20.30;71.10;;;;;;4994652;28;20048;-57
2023/08/13 03:10:49;;;;;;;7.43;4.97;;;20.30;70.80;;;;;;4994638;28;20092;-53
2023/08/13 03:13:15;;;;;;;8.75;4.55;;;20.40;70.80;;;;;;4994651;28;20437;-57
2023/08/13 03:15:40;;;;;;;6.43;4.85;;;20.40;70.70;;;;;;4994588;28;20018;-57
2023/08/13 03:18:07;;;;;;;5.30;4.28;;;20.40;70.70;;;;;;4994505;28;20026;-56
2023/08/13 03:20:33;;;;;;;7.13;4.72;;;20.40;70.70;;;;;;4994701;28;20042;-54
2023/08/13 03:22:58;;;;;;;5.82;4.63;;;20.40;70.80;;;;;;4994468;28;20051;-57
2023/08/13 03:25:24;;;;;;;5.78;4.47;;;20.50;70.90;;;;;;4994192;28;20034;-52
2023/08/13 03:27:50;;;;;;;6.50;5.07;;;20.50;70.80;;;;;;4994310;28;20026;-57
2023/08/13 03:30:16;;;;;;;6.60;4.50;;;20.50;70.60;;;;;;4994298;28;20045;-55
2023/08/13 03:32:41;;;;;;;6.53;4.72;;;20.60;70.40;;;;;;4994226;28;20034;-53
2023/08/13 03:35:07;;;;;;;6.75;4.90;;;20.70;70.20;;;;;;4994179;28;20461;-57
2023/08/13 03:37:33;;;;;;;6.68;4.25;;;20.80;70.10;;;;;;4994209;28;20521;-57
2023/08/13 03:39:58;;;;;;;4.85;3.90;;;20.90;69.80;;;;;;4994184;28;20556;-57
2023/08/13 03:42:24;;;;;;;6.25;4.22;;;21.00;69.30;;;;;;4994321;28;20417;-56
2023/08/13 03:44:50;;;;;;;4.72;4.07;;;21.10;69.00;;;;;;4994141;28;20034;-54
2023/08/13 03:47:15;;;;;;;7.38;4.50;;;21.20;68.80;;;;;;4993985;28;20039;-56
2023/08/13 03:49:41;;;;;;;7.40;4.68;;;21.30;68.50;;;;;;4993983;28;20482;-54
2023/08/13 03:52:09;;;;;;;5.70;4.25;;;21.40;68.30;;;;;;4993883;28;20031;-57
2023/08/13 03:54:35;;;;;;;5.53;4.60;;;21.50;68.20;;;;;;4994133;28;20042;-57
2023/08/13 03:57:00;;;;;;;8.27;4.45;;;21.60;68.10;;;;;;4994019;28;20382;-57
2023/08/13 03:59:26;;;;;;;5.47;4.22;;;21.60;68.00;;;;;;4993721;28;20038;-55
2023/08/13 04:01:52;;;;;;;4.78;4.20;;;21.70;68.20;;;;;;4993818;28;20041;-57
2023/08/13 04:04:17;;;;;;;6.15;4.10;;;21.90;68.00;;;;;;4993499;28;20031;-56
2023/08/13 04:06:43;;;;;;;5.50;4.18;;;22.00;67.90;;;;;;4993636;28;20026;-58
2023/08/13 04:09:09;;;;;;;7.40;4.32;;;22.30;68.00;;;;;;4993496;28;20032;-58
2023/08/13 04:11:34;;;;;;;6.20;4.40;;;22.60;67.30;;;;;;4991675;28;20030;-56
2023/08/13 04:14:00;;;;;;;8.57;4.35;;;22.90;66.20;;;;;;4991443;28;20038;-53
2023/08/13 04:16:26;;;;;;;5.88;4.47;;;23.00;65.70;;;;;;4991822;28;20038;-58
2023/08/13 04:18:52;;;;;;;4.80;3.90;;;23.20;65.20;;;;;;4991658;28;20018;-56
2023/08/13 04:21:18;;;;;;;5.43;4.22;;;23.40;64.80;;;;;;4991431;28;20030;-54
2023/08/13 04:23:44;;;;;;;5.18;4.25;;;23.60;64.30;;;;;;4991142;28;20042;-55
2023/08/13 04:26:10;;;;;;;5.90;4.20;;;23.80;63.70;;;;;;4992458;28;20096;-57
2023/08/13 04:28:35;;;;;;;5.07;4.07;;;23.80;63.30;;;;;;4993454;28;20080;-56
2023/08/13 04:31:01;;;;;;;4.65;4.03;;;23.80;63.20;;;;;;4993115;28;20511;-58
2023/08/13 04:33:27;;;;;;;5.35;4.22;;;23.80;63.20;;;;;;4992896;28;20091;-58
2023/08/13 04:35:53;;;;;;;5.47;4.30;;;23.70;63.10;;;;;;4993346;28;20062;-57
2023/08/13 04:38:20;;;;;;;6.72;4.45;;;23.70;63.00;;;;;;4992948;28;20023;-57
2023/08/13 04:40:47;;;;;;;5.63;4.30;;;23.60;63.70;;;;;;4992954;28;20378;-53
2023/08/13 04:43:13;;;;;;;4.82;3.92;;;23.60;63.00;;;;;;4993174;28;20061;-57
2023/08/13 04:45:39;;;;;;;5.80;4.65;;;23.60;63.50;;;;;;4993165;28;20026;-58
2023/08/13 04:48:05;;;;;;;4.65;3.70;;;23.80;63.50;;;;;;4992796;28;20464;-57
2023/08/13 04:50:31;;;;;;;6.13;4.50;;;24.20;62.60;;;;;;4993120;28;20454;-58
2023/08/13 04:52:56;;;;;;;7.40;4.15;;;24.50;61.80;;;;;;4992755;28;20091;-56
2023/08/13 04:55:22;;;;;;;6.13;3.80;;;24.70;61.40;;;;;;4992630;28;20027;-57
2023/08/13 04:57:47;;;;;;;5.13;3.90;;;24.70;61.10;;;;;;4992621;28;20076;-53
2023/08/13 05:00:14;;;;;;;4.22;3.75;;;24.60;61.10;;;;;;4992906;28;20032;-57
2023/08/13 05:02:39;;;;;;;4.82;3.85;;;24.60;61.60;;;;;;4992856;28;20023;-57
2023/08/13 05:05:05;;;;;;;6.72;4.50;;;24.60;61.80;;;;;;4992603;28;20034;-59
2023/08/13 05:07:31;;;;;;;6.57;4.20;;;24.70;62.00;;;;;;4992911;28;20455;-58
2023/08/13 05:09:57;;;;;;;5.80;4.07;;;24.80;62.00;;;;;;4992749;28;20030;-56
2023/08/13 05:12:22;;;;;;;7.68;4.72;;;24.90;62.00;;;;;;4992445;28;20060;-57
2023/08/13 05:14:48;;;;;;;5.95;4.40;;;25.00;61.40;;;;;;4992890;28;20480;-53
2023/08/13 05:17:18;;;;;;;5.85;4.28;;;25.00;61.10;;;;;;4991906;28;20490;-54
2023/08/13 05:19:44;;;;;;;7.53;4.00;;;25.00;60.40;;;;;;4992105;28;20081;-54
2023/08/13 05:22:10;;;;;;;6.35;4.40;;;24.90;60.70;;;;;;4990146;28;20509;-57
2023/08/13 05:24:35;;;;;;;7.32;3.92;;;24.80;60.80;;;;;;4990224;28;20034;-57
2023/08/13 05:27:01;;;;;;;6.18;4.00;;;24.70;61.20;;;;;;4990198;28;20073;-58
2023/08/13 05:29:26;;;;;;;4.07;3.40;;;24.70;61.50;;;;;;4990331;28;20042;-56
2023/08/13 05:31:53;;;;;;;6.13;3.67;;;24.70;61.40;;;;;;4990479;28;20102;-57
2023/08/13 05:34:19;;;;;;;5.00;3.50;;;24.70;61.50;;;;;;4991481;28;20589;-56
2023/08/13 05:36:45;;;;;;;5.30;3.83;;;24.80;61.50;;;;;;4992251;28;20109;-54
2023/08/13 05:39:10;;;;;;;3.97;3.40;;;25.00;61.40;;;;;;4992349;28;20034;-57
2023/08/13 05:41:36;;;;;;;5.57;3.60;;;25.20;61.10;;;;;;4992277;28;20069;-54
2023/08/13 05:44:02;;;;;;;5.07;3.65;;;25.30;60.80;;;;;;4989995;28;20026;-58
2023/08/13 05:46:28;;;;;;;5.13;3.67;;;25.40;60.40;;;;;;4991965;28;20030;-57
2023/08/13 05:48:54;;;;;;;5.30;4.22;;;25.40;60.30;;;;;;4992461;28;20026;-58
2023/08/13 05:51:20;;;;;;;4.53;3.55;;;25.50;60.50;;;;;;4991903;28;20113;-56
2023/08/13 05:53:46;;;;;;;5.25;3.55;;;25.40;60.60;;;;;;4992103;28;20034;-59
2023/08/13 05:56:11;;;;;;;6.28;4.10;;;25.40;60.50;;;;;;4992095;28;20116;-58
2023/08/13 05:58:37;;;;;;;4.53;3.40;;;25.50;60.50;;;;;;4992143;28;20065;-58
2023/08/13 06:01:03;;;;;;;6.80;3.30;;;25.50;60.40;;;;;;4991954;28;20109;-54
2023/08/13 06:03:29;;;;;;;4.00;3.58;;;25.50;60.30;;;;;;4991276;28;20049;-56
2023/08/13 06:05:55;;;;;;;5.55;3.33;;;25.40;60.40;;;;;;4991370;28;20023;-58
2023/08/13 06:08:21;;;;;;;4.35;3.03;;;25.50;60.10;;;;;;4991864;28;20022;-58
2023/08/13 06:10:46;;;;;;;4.55;3.30;;;25.40;60.00;;;;;;4992079;28;20029;-58
2023/08/13 06:13:12;;;;;;;4.65;3.22;;;25.50;60.20;;;;;;4991185;28;20401;-58
2023/08/13 06:15:38;;;;;;;4.38;3.20;;;25.50;60.10;;;;;;4989900;28;20030;-56
2023/08/13 06:18:04;;;;;;;5.30;3.60;;;25.60;60.20;;;;;;4990017;28;20027;-57
2023/08/13 06:20:31;;;;;;;5.25;3.53;;;25.60;60.20;;;;;;4990024;28;20477;-52
2023/08/13 06:22:57;;;;;;;6.65;3.25;;;25.60;60.10;;;;;;4991671;28;20047;-57
2023/08/13 06:25:22;;;;;;;6.25;3.40;;;25.60;59.90;;;;;;4991644;28;20034;-58
2023/08/13 06:27:48;;;;;;;4.50;3.28;;;25.70;59.80;;;;;;4990986;28;20482;-57
2023/08/13 06:30:14;;;;;;;5.80;3.28;;;25.70;59.40;;;;;;4991347;28;20030;-56
2023/08/13 06:32:39;;;;;;;3.67;2.90;;;25.70;59.20;;;;;;4990625;28;20026;-58
2023/08/13 06:35:06;;;;;;;3.50;2.95;;;25.70;59.40;;;;;;4990101;28;20031;-57
2023/08/13 06:37:32;;;;;;;5.07;3.20;;;25.80;59.50;;;;;;4991761;28;20102;-57
2023/08/13 06:39:57;;;;;;;5.68;3.08;;;25.80;59.30;;;;;;4991502;28;20109;-56
2023/08/13 06:42:23;;;;;;;3.03;2.70;;;25.80;59.10;;;;;;4990859;28;20054;-58
2023/08/13 06:44:49;;;;;;;3.97;2.95;;;25.80;59.70;;;;;;4991289;28;20018;-57
2023/08/13 06:47:15;;;;;;;4.05;2.78;;;25.90;59.60;;;;;;4989801;28;20023;-57
2023/08/13 06:49:40;;;;;;;3.55;2.90;;;25.90;59.70;;;;;;4989869;28;20031;-57
2023/08/13 06:52:06;;;;;;;4.30;2.88;;;25.90;59.40;;;;;;4990103;28;20386;-58
2023/08/13 06:54:32;;;;;;;4.70;3.10;;;25.90;59.40;;;;;;4991469;28;20041;-56
2023/08/13 06:56:59;;;;;;;2.88;2.50;;;25.90;59.50;;;;;;4993796;28;20034;-56
2023/08/13 06:59:24;;;;;;;3.28;2.97;;;25.90;59.40;;;;;;4993401;28;20026;-56
2023/08/13 07:01:50;;;;;;;6.05;3.28;;;25.90;59.80;;;;;;4994848;28;20081;-56
2023/08/13 07:04:16;;;;;;;3.30;2.60;;;25.90;60.20;;;;;;4994848;28;20509;-58
2023/08/13 07:06:41;;;;;;;4.43;3.00;;;25.90;61.20;;;;;;4994731;28;20065;-57
2023/08/13 07:09:07;;;;;;;3.38;2.70;;;25.90;61.00;;;;;;4994730;28;20394;-58
2023/08/13 07:11:33;;;;;;;5.85;3.00;;;26.00;61.00;;;;;;4994692;28;20462;-53
2023/08/13 07:13:59;;;;;;;5.38;3.38;;;25.90;61.10;;;;;;4992907;28;20026;-57
2023/08/13 07:16:24;;;;;;;2.95;2.65;;;25.90;61.30;;;;;;4992846;28;20482;-57
2023/08/13 07:18:50;;;;;;;3.65;2.72;;;25.90;60.90;;;;;;4993080;28;20109;-57
2023/08/13 07:21:16;;;;;;;3.70;2.60;;;25.90;61.00;;;;;;4993727;28;20135;-57
2023/08/13 07:23:42;;;;;;;4.00;3.00;;;25.90;61.00;;;;;;4993708;28;20362;-56
2023/08/13 07:26:08;;;;;;;5.50;2.78;;;25.90;60.90;;;;;;4994167;28;20647;-57
2023/08/13 07:28:39;;;;;;;4.47;2.85;;;25.90;60.80;;;;;;4993505;28;20042;-55
2023/08/13 07:31:05;;;;;;;5.07;3.22;;;25.90;60.90;;;;;;4994440;28;20081;-58
2023/08/13 07:33:32;;;;;;;3.83;3.20;;;25.90;61.30;;;;;;4994296;28;20018;-58
2023/08/13 07:36:00;;;;;;;4.45;2.90;;;25.90;61.50;;;;;;4994145;28;20474;-57
2023/08/13 07:38:25;;;;;;;3.83;2.88;;;25.90;61.50;;;;;;4994363;28;20027;-57
2023/08/13 07:40:51;;;;;;;5.15;2.83;;;25.90;61.40;;;;;;4994199;28;20022;-58
2023/08/13 07:43:17;;;;;;;3.55;2.90;;;25.90;61.50;;;;;;4994036;28;20032;-58
2023/08/13 07:45:43;;;;;;;3.88;2.83;;;25.90;61.30;;;;;;4994358;28;20030;-56
2023/08/13 07:48:09;;;;;;;3.83;2.85;;;25.80;61.30;;;;;;4994064;28;20430;-58
2023/08/13 07:50:35;;;;;;;3.15;2.50;;;25.80;61.00;;;;;;4994083;28;20034;-57
2023/08/13 07:53:00;;;;;;;4.47;3.28;;;25.80;61.00;;;;;;4994090;28;20494;-58
2023/08/13 07:55:26;;;;;;;4.75;3.10;;;25.80;60.50;;;;;;4994129;28;20042;-54
2023/08/13 07:57:52;;;;;;;5.68;3.25;;;25.80;60.30;;;;;;4993986;28;20042;-58
2023/08/13 08:00:17;;;;;;;3.72;2.80;;;25.80;60.70;;;;;;4993822;28;20057;-56
2023/08/13 08:02:43;;;;;;;2.97;2.63;;;25.80;60.90;;;;;;4993775;28;20052;-58
2023/08/13 08:05:10;;;;;;;3.95;2.78;;;25.80;60.70;;;;;;4993617;28;20445;-57
2023/08/13 08:07:36;;;;;;;4.03;2.80;;;25.80;60.70;;;;;;4993149;28;20122;-58
2023/08/13 08:10:02;;;;;;;5.90;3.30;;;25.80;60.90;;;;;;4993936;28;20062;-58
2023/08/13 08:12:28;;;;;;;7.28;3.33;;;25.80;60.60;;;;;;4993789;28;20027;-54
2023/08/13 08:14:54;;;;;;;3.53;3.22;;;25.80;61.30;;;;;;4993766;28;20497;-58
2023/08/13 08:17:20;;;;;;;4.47;3.47;;;25.70;61.40;;;;;;4993754;28;20034;-52
2023/08/13 08:19:48;;;;;;;4.72;3.33;;;25.70;62.00;;;;;;4993474;28;20488;-55
2023/08/13 08:22:14;;;;;;;7.03;3.67;;;25.70;62.80;;;;;;4993454;28;20069;-58
2023/08/13 08:24:40;;;;;;;5.93;3.60;;;25.70;62.30;;;;;;4993328;28;20510;-57
2023/08/13 08:27:07;;;;;;;4.20;3.10;;;25.70;62.90;;;;;;4993295;28;20054;-58
2023/08/13 08:29:36;;;;;;;4.05;3.20;;;25.60;63.10;;;;;;4993444;28;20065;-56
2023/08/13 08:32:02;;;;;;;4.35;3.30;;;25.60;63.50;;;;;;4993400;28;20138;-55
2023/08/13 08:34:29;;;;;;;3.90;3.35;;;25.60;63.00;;;;;;4993069;28;20125;-55
2023/08/13 08:36:55;;;;;;;4.05;3.13;;;25.50;62.60;;;;;;4993300;28;20084;-55
2023/08/13 08:39:21;;;;;;;4.40;3.25;;;25.50;62.70;;;;;;4993052;28;20026;-55
2023/08/13 08:41:47;;;;;;;6.35;3.55;;;25.50;62.50;;;;;;4992902;28;20042;-55
2023/08/13 08:44:20;;;;;;;4.70;3.60;;;25.40;62.80;;;;;;4992789;28;20386;-57
2023/08/13 08:46:48;;;;;;;4.40;3.63;;;25.40;63.70;;;;;;4992932;28;20018;-56
2023/08/13 08:49:21;;;;;;;5.70;3.33;;;25.30;63.30;;;;;;4992891;28;20018;-57
2023/08/13 08:51:48;;;;;;;4.55;3.50;;;25.30;63.50;;;;;;4993087;28;20025;-57
2023/08/13 08:54:14;;;;;;;4.43;3.33;;;25.20;63.60;;;;;;4992981;28;20068;-54
2023/08/13 08:56:40;;;;;;;4.13;3.35;;;25.20;63.70;;;;;;4992698;28;20113;-56
2023/08/13 08:59:06;;;;;;;3.65;3.28;;;25.20;63.70;;;;;;4992926;28;20708;-57
2023/08/13 09:01:32;;;;;;;4.60;3.17;;;25.20;63.80;;;;;;4992775;28;20029;-57
2023/08/13 09:03:58;;;;;;;3.55;2.92;;;25.20;63.70;;;;;;4992436;28;20066;-58
2023/08/13 09:06:23;;;;;;;4.20;3.30;;;25.30;63.90;;;;;;4992689;28;20486;-59
2023/08/13 09:08:49;;;;;;;5.90;3.15;;;25.20;63.80;;;;;;4992785;28;20485;-58
2023/08/13 09:11:17;;;;;;;5.45;3.53;;;25.30;63.90;;;;;;4992582;28;20034;-53
2023/08/13 09:13:49;;;;;;;5.60;3.50;;;25.20;63.70;;;;;;4992681;28;20375;-58
2023/08/13 09:16:15;;;;;;;4.20;3.00;;;25.20;64.50;;;;;;4992463;28;20030;-54
2023/08/13 09:18:41;;;;;;;3.58;3.25;;;25.20;63.80;;;;;;4992539;28;20022;-58
2023/08/13 09:21:09;;;;;;;4.10;3.45;;;25.20;64.20;;;;;;4992335;28;20041;-55
2023/08/13 09:23:38;;;;;;;5.22;3.70;;;25.20;64.40;;;;;;4992198;28;20072;-58
2023/08/13 09:26:03;;;;;;;4.53;4.00;;;25.20;64.30;;;;;;4992503;28;20383;-58
2023/08/13 09:28:29;;;;;;;6.30;3.83;;;25.20;64.30;;;;;;4992311;28;20025;-57
2023/08/13 09:30:57;;;;;;;7.38;3.30;;;25.20;63.80;;;;;;4992293;28;20521;-57
2023/08/13 09:33:23;;;;;;;4.38;3.38;;;25.20;63.50;;;;;;4992546;28;20105;-54
2023/08/13 09:35:48;;;;;;;3.95;3.55;;;25.20;63.90;;;;;;4992067;28;20114;-56
2023/08/13 09:38:14;;;;;;;4.32;3.20;;;25.10;64.30;;;;;;4992073;28;20030;-56
2023/08/13 09:40:40;;;;;;;4.60;3.35;;;25.10;64.10;;;;;;4992060;28;20022;-58
2023/08/13 09:43:06;;;;;;;4.32;3.35;;;25.10;64.40;;;;;;4992075;28;20026;-57
2023/08/13 09:45:34;;;;;;;4.85;3.45;;;25.10;64.30;;;;;;4991994;28;20023;-58
2023/08/13 09:48:04;;;;;;;4.07;3.42;;;25.20;64.00;;;;;;4991960;28;20046;-55
2023/08/13 09:50:34;;;;;;;7.35;4.63;;;25.20;63.90;;;;;;4992186;28;20034;-56
2023/08/13 09:53:01;;;;;;;4.25;3.20;;;25.30;63.60;;;;;;4992269;28;20038;-54
2023/08/13 09:55:31;;;;;;;6.28;3.75;;;25.30;63.90;;;;;;4991955;28;20057;-53
2023/08/13 09:58:00;;;;;;;5.03;3.17;;;25.30;63.80;;;;;;4991434;28;20037;-57
2023/08/13 10:00:27;;;;;;;3.20;2.90;;;25.30;63.90;;;;;;4990500;28;20037;-56
2023/08/13 10:02:53;;;;;;;4.20;3.45;;;25.30;63.70;;;;;;4989598;28;20033;-58
2023/08/13 10:05:19;;;;;;;4.78;2.97;;;25.30;63.80;;;;;;4991002;28;20026;-58
2023/08/13 10:07:45;;;;;;;4.78;3.15;;;25.30;64.00;;;;;;4989606;28;20076;-57
2023/08/13 10:10:11;;;;;;;3.47;2.95;;;25.30;63.60;;;;;;4990159;28;20852;-55
2023/08/13 10:12:38;;;;;;;3.97;3.10;;;25.30;63.30;;;;;;4990956;28;20035;-56
2023/08/13 10:15:04;;;;;;;3.70;3.25;;;25.30;63.00;;;;;;4991457;28;20113;-53
2023/08/13 10:17:32;;;;;;;3.53;2.90;;;25.30;62.90;;;;;;4991493;28;20113;-57
2023/08/13 10:19:59;;;;;;;3.30;3.00;;;25.30;63.00;;;;;;4990673;28;20034;-56
2023/08/13 10:22:34;;;;;;;4.65;3.17;;;25.40;62.90;;;;;;4990982;28;20038;-57
2023/08/13 10:25:00;;;;;;;3.17;2.67;;;25.40;62.90;;;;;;4991018;28;20478;-58
2023/08/13 10:27:27;;;;;;;3.42;2.78;;;25.40;62.50;;;;;;4990907;28;20117;-55
2023/08/13 10:30:13;;;;;;;6.53;3.20;;;25.40;62.40;;;;;;4991559;28;20100;-57
2023/08/13 10:32:51;;;;;;;3.33;3.00;;;25.30;61.90;;;;;;4994868;28;20019;-53
2023/08/13 10:35:37;;;;;;;3.20;2.72;;;25.30;62.00;;;;;;4995378;28;20026;-58
2023/08/13 10:38:04;;;;;;;4.25;2.80;;;25.30;61.90;;;;;;4995629;28;20038;-58
2023/08/13 10:40:30;;;;;;;4.57;3.00;;;25.30;61.90;;;;;;4995461;28;20034;-55
2023/08/13 10:42:56;;;;;;;3.20;2.80;;;25.30;61.50;;;;;;4995485;28;20026;-57
2023/08/13 10:45:40;;;;;;;3.88;3.08;;;25.30;61.40;;;;;;4995190;28;20508;-57
2023/08/13 10:48:06;;;;;;;3.92;2.95;;;25.20;61.20;;;;;;4995284;28;20109;-57
2023/08/13 10:50:44;;;;;;;4.05;3.20;;;25.20;61.20;;;;;;4995135;28;20097;-58
2023/08/13 10:53:20;;;;;;;4.57;2.92;;;25.20;61.40;;;;;;4995286;28;20498;-57
2023/08/13 10:55:47;;;;;;;3.13;2.83;;;25.10;61.10;;;;;;4995032;28;20034;-57
2023/08/13 10:58:31;;;;;;;3.33;2.92;;;25.10;62.20;;;;;;4995014;28;20030;-58
2023/08/13 11:01:11;;;;;;;4.05;2.60;;;25.20;62.00;;;;;;4995342;28;20502;-56
2023/08/13 11:04:03;;;;;;;4.22;3.33;;;25.20;62.10;;;;;;4994912;28;20022;-58
2023/08/13 11:06:28;;;;;;;4.38;3.30;;;25.20;62.00;;;;;;4993749;28;20030;-57
2023/08/13 11:08:54;;;;;;;5.05;3.05;;;25.10;62.20;;;;;;4994988;28;20493;-58
2023/08/13 11:11:20;;;;;;;3.67;3.20;;;25.10;62.50;;;;;;4994659;28;20026;-54
2023/08/13 11:13:47;;;;;;;4.57;3.05;;;25.10;62.70;;;;;;4994948;28;20029;-57
2023/08/13 11:16:13;;;;;;;3.65;3.10;;;25.10;62.80;;;;;;4995129;28;20069;-56
2023/08/13 11:18:39;;;;;;;4.85;3.10;;;25.10;63.20;;;;;;4994644;28;20136;-55
2023/08/13 11:21:05;;;;;;;3.38;2.90;;;25.20;62.60;;;;;;4995049;28;20366;-53
2023/08/13 11:23:31;;;;;;;4.25;2.83;;;25.10;61.70;;;;;;4994281;28;20038;-56
2023/08/13 11:25:57;;;;;;;3.40;2.83;;;25.20;61.50;;;;;;4994461;28;20022;-57
2023/08/13 11:28:27;;;;;;;3.75;3.35;;;25.20;60.90;;;;;;4994610;28;20076;-58
2023/08/13 11:30:56;;;;;;;4.22;2.80;;;25.20;60.60;;;;;;4994458;28;20077;-57
2023/08/13 11:33:22;;;;;;;3.55;2.83;;;25.20;60.60;;;;;;4994657;28;20113;-56
2023/08/13 11:35:48;;;;;;;3.75;2.70;;;25.30;60.60;;;;;;4994335;28;20419;-54
2023/08/13 11:38:14;;;;;;;4.53;2.97;;;25.30;60.40;;;;;;4993130;28;20037;-56
2023/08/13 11:40:40;;;;;;;4.43;2.88;;;25.30;60.50;;;;;;4992368;28;20018;-55
2023/08/13 11:43:10;;;;;;;3.50;2.90;;;25.40;60.70;;;;;;4991123;28;20080;-57
2023/08/13 11:45:35;;;;;;;3.47;2.67;;;25.40;60.40;;;;;;4992489;28;20034;-55
2023/08/13 11:48:14;;;;;;;5.07;2.90;;;25.40;60.10;;;;;;4992146;28;20532;-54
2023/08/13 11:50:41;;;;;;;5.38;2.85;;;25.40;60.10;;;;;;4993272;28;20073;-57
2023/08/13 11:53:14;;;;;;;4.78;3.20;;;25.40;60.30;;;;;;4993360;28;20482;-58
2023/08/13 11:55:43;;;;;;;3.80;3.30;;;25.50;61.30;;;;;;4993781;28;20482;-58
2023/08/13 11:58:09;;;;;;;2.90;2.60;;;25.50;61.40;;;;;;4993881;28;20023;-58
2023/08/13 12:00:36;;;;;;;4.65;3.00;;;25.40;61.10;;;;;;4992711;28;20030;-57
2023/08/13 12:03:02;;;;;;;4.05;3.15;;;25.40;61.60;;;;;;4993338;28;20022;-58
2023/08/13 12:05:29;;;;;;;3.55;2.80;;;25.30;61.70;;;;;;4993136;28;20103;-53
2023/08/13 12:08:00;;;;;;;3.45;2.78;;;25.30;61.60;;;;;;4992121;28;20023;-55
2023/08/13 12:10:26;;;;;;;5.15;2.95;;;25.30;61.80;;;;;;4992012;28;20081;-57
2023/08/13 12:12:52;;;;;;;4.45;2.90;;;25.30;62.00;;;;;;4993049;28;20542;-57
2023/08/13 12:15:22;;;;;;;5.40;2.70;;;25.30;61.40;;;;;;4993428;28;20102;-58
2023/08/13 12:17:48;;;;;;;3.47;2.80;;;25.20;60.80;;;;;;4993769;28;20064;-57
2023/08/13 12:20:14;;;;;;;3.95;2.58;;;25.20;60.90;;;;;;4993606;28;20555;-58
2023/08/13 12:22:40;;;;;;;3.83;2.88;;;25.20;60.90;;;;;;4993352;28;20085;-54
2023/08/13 12:25:06;;;;;;;4.47;3.03;;;25.20;61.20;;;;;;4993594;28;20117;-57
2023/08/13 12:27:33;;;;;;;6.75;2.78;;;25.20;60.70;;;;;;4993671;28;20032;-57
2023/08/13 12:29:58;;;;;;;3.03;2.70;;;25.10;60.60;;;;;;4993378;28;20026;-57
2023/08/13 12:32:24;;;;;;;3.08;2.80;;;25.10;60.60;;;;;;4993187;28;20029;-57
2023/08/13 12:34:50;;;;;;;3.08;2.65;;;25.10;61.00;;;;;;4993553;28;20057;-58
2023/08/13 12:37:15;;;;;;;3.40;2.70;;;25.00;60.70;;;;;;4993429;28;20103;-55
2023/08/13 12:39:42;;;;;;;2.78;2.55;;;25.00;60.50;;;;;;4993019;28;20042;-55
2023/08/13 12:42:09;;;;;;;4.10;2.88;;;25.00;60.90;;;;;;4993241;28;20403;-53
2023/08/13 12:44:35;;;;;;;3.92;2.60;;;24.90;60.90;;;;;;4993180;28;20026;-58
2023/08/13 12:47:00;;;;;;;3.20;2.67;;;24.90;61.00;;;;;;4992803;28;20133;-58